sensor_id;sensor_type;location;lat;lon;timestamp;temperature;humidity
14277;DHT22;7222;57.346;12.150;2022-10-16T00:01:16;14.50;99.90
14277;DHT22;7222;57.346;12.150;2022-10-16T00:03:44;14.50;99.90
14277;DHT22;7222;57.346;12.150;2022-10-16T00:06:12;14.50;99.90
14277;DHT22;7222;57.346;12.150;2022-10-16T00:08:40;14.60;99.90
14277;DHT22;7222;57.346;12.150;2022-10-16T00:11:10;14.60;99.90
14277;DHT22;7222;57.346;12.150;2022-10-16T00:13:39;14.60;99.90
14277;DHT22;7222;57.346;12.150;2022-10-16T00:16:07;14.50;99.90
14277;DHT22;7222;57.346;12.150;2022-10-16T00:18:35;14.50;99.90
14277;DHT22;7222;57.346;12.150;2022-10-16T00:21:03;14.40;99.90
14277;DHT22;7222;57.346;12.150;2022-10-16T00:23:31;14.30;99.90
14277;DHT22;7222;57.346;12.150;2022-10-16T00:25:59;14.30;99.90
14277;DHT22;7222;57.346;12.150;2022-10-16T00:28:28;14.20;99.90
14277;DHT22;7222;57.346;12.150;2022-10-16T00:30:56;14.20;99.90
14277;DHT22;7222;57.346;12.150;2022-10-16T00:33:23;14.20;99.90
14277;DHT22;7222;57.346;12.150;2022-10-16T00:35:50;14.10;99.90
14277;DHT22;7222;57.346;12.150;2022-10-16T00:38:17;14.00;99.90
14277;DHT22;7222;57.346;12.150;2022-10-16T00:40:44;14.00;99.90
14277;DHT22;7222;57.346;12.150;2022-10-16T00:43:13;13.90;99.90
14277;DHT22;7222;57.346;12.150;2022-10-16T00:45:42;13.90;99.90
14277;DHT22;7222;57.346;12.150;2022-10-16T00:48:12;13.90;99.90
14277;DHT22;7222;57.346;12.150;2022-10-16T00:50:40;13.80;99.90
14277;DHT22;7222;57.346;12.150;2022-10-16T00:53:10;13.80;99.90
14277;DHT22;7222;57.346;12.150;2022-10-16T00:55:37;13.70;99.90
14277;DHT22;7222;57.346;12.150;2022-10-16T00:58:05;13.60;99.90
14277;DHT22;7222;57.346;12.150;2022-10-16T01:00:32;13.50;99.90
14277;DHT22;7222;57.346;12.150;2022-10-16T01:03:02;13.50;99.90
14277;DHT22;7222;57.346;12.150;2022-10-16T01:05:34;13.40;99.90
14277;DHT22;7222;57.346;12.150;2022-10-16T01:08:12;13.40;99.90
14277;DHT22;7222;57.346;12.150;2022-10-16T01:10:44;13.30;99.90
14277;DHT22;7222;57.346;12.150;2022-10-16T01:13:16;13.30;99.90
14277;DHT22;7222;57.346;12.150;2022-10-16T01:15:47;13.30;99.90
14277;DHT22;7222;57.346;12.150;2022-10-16T01:18:18;13.20;99.90
14277;DHT22;7222;57.346;12.150;2022-10-16T01:20:50;13.20;99.90
14277;DHT22;7222;57.346;12.150;2022-10-16T01:23:27;13.20;99.90
14277;DHT22;7222;57.346;12.150;2022-10-16T01:26:15;13.20;99.90
14277;DHT22;7222;57.346;12.150;2022-10-16T01:28:52;13.10;99.90
14277;DHT22;7222;57.346;12.150;2022-10-16T01:31:24;13.10;99.90
14277;DHT22;7222;57.346;12.150;2022-10-16T01:33:59;13.00;99.90
14277;DHT22;7222;57.346;12.150;2022-10-16T01:36:31;13.00;99.90
14277;DHT22;7222;57.346;12.150;2022-10-16T01:39:02;13.00;99.90
14277;DHT22;7222;57.346;12.150;2022-10-16T01:41:33;13.00;99.90
14277;DHT22;7222;57.346;12.150;2022-10-16T01:44:05;12.90;99.90
14277;DHT22;7222;57.346;12.150;2022-10-16T01:46:35;13.00;99.90
14277;DHT22;7222;57.346;12.150;2022-10-16T01:49:03;12.90;99.90
14277;DHT22;7222;57.346;12.150;2022-10-16T01:51:32;12.90;99.90
14277;DHT22;7222;57.346;12.150;2022-10-16T01:54:02;13.00;99.90
14277;DHT22;7222;57.346;12.150;2022-10-16T01:56:32;12.90;99.90
14277;DHT22;7222;57.346;12.150;2022-10-16T01:59:05;12.90;99.90
14277;DHT22;7222;57.346;12.150;2022-10-16T02:01:36;12.90;99.90
14277;DHT22;7222;57.346;12.150;2022-10-16T02:04:13;12.90;99.90
14277;DHT22;7222;57.346;12.150;2022-10-16T02:06:41;12.90;99.90
14277;DHT22;7222;57.346;12.150;2022-10-16T02:09:09;12.90;99.90
14277;DHT22;7222;57.346;12.150;2022-10-16T02:11:36;13.00;99.90
14277;DHT22;7222;57.346;12.150;2022-10-16T02:14:06;12.90;99.90
14277;DHT22;7222;57.346;12.150;2022-10-16T02:16:36;13.00;99.90
14277;DHT22;7222;57.346;12.150;2022-10-16T02:19:03;13.00;99.90
14277;DHT22;7222;57.346;12.150;2022-10-16T02:21:38;13.10;99.90
14277;DHT22;7222;57.346;12.150;2022-10-16T02:24:12;13.20;99.90
14277;DHT22;7222;57.346;12.150;2022-10-16T02:26:43;13.20;99.90
14277;DHT22;7222;57.346;12.150;2022-10-16T02:29:17;13.30;99.90
14277;DHT22;7222;57.346;12.150;2022-10-16T02:31:48;13.30;99.90
14277;DHT22;7222;57.346;12.150;2022-10-16T02:34:18;13.30;99.90
14277;DHT22;7222;57.346;12.150;2022-10-16T02:36:47;13.40;99.90
14277;DHT22;7222;57.346;12.150;2022-10-16T02:39:15;13.40;99.90
14277;DHT22;7222;57.346;12.150;2022-10-16T02:41:43;13.40;99.90
14277;DHT22;7222;57.346;12.150;2022-10-16T02:44:10;13.50;99.90
14277;DHT22;7222;57.346;12.150;2022-10-16T02:46:39;13.50;99.90
14277;DHT22;7222;57.346;12.150;2022-10-16T02:49:06;13.50;99.90
14277;DHT22;7222;57.346;12.150;2022-10-16T02:51:33;13.60;99.90
14277;DHT22;7222;57.346;12.150;2022-10-16T02:54:00;13.70;99.90
14277;DHT22;7222;57.346;12.150;2022-10-16T02:56:27;13.60;99.90
14277;DHT22;7222;57.346;12.150;2022-10-16T02:58:55;13.60;99.90
14277;DHT22;7222;57.346;12.150;2022-10-16T03:01:22;13.70;99.90
14277;DHT22;7222;57.346;12.150;2022-10-16T03:03:51;13.80;99.90
14277;DHT22;7222;57.346;12.150;2022-10-16T03:06:18;13.80;99.90
14277;DHT22;7222;57.346;12.150;2022-10-16T03:08:45;13.80;99.90
14277;DHT22;7222;57.346;12.150;2022-10-16T03:11:12;13.70;99.90
14277;DHT22;7222;57.346;12.150;2022-10-16T03:13:39;13.80;99.90
14277;DHT22;7222;57.346;12.150;2022-10-16T03:16:06;13.70;99.90
14277;DHT22;7222;57.346;12.150;2022-10-16T03:18:34;13.70;99.90
14277;DHT22;7222;57.346;12.150;2022-10-16T03:21:02;13.70;99.90
14277;DHT22;7222;57.346;12.150;2022-10-16T03:23:29;13.70;99.90
14277;DHT22;7222;57.346;12.150;2022-10-16T03:25:56;13.70;99.90
14277;DHT22;7222;57.346;12.150;2022-10-16T03:28:23;13.80;99.90
14277;DHT22;7222;57.346;12.150;2022-10-16T03:30:50;13.70;99.90
14277;DHT22;7222;57.346;12.150;2022-10-16T03:33:17;13.80;99.90
14277;DHT22;7222;57.346;12.150;2022-10-16T03:35:51;13.70;99.90
14277;DHT22;7222;57.346;12.150;2022-10-16T03:38:21;13.80;99.90
14277;DHT22;7222;57.346;12.150;2022-10-16T03:40:48;13.80;99.90
14277;DHT22;7222;57.346;12.150;2022-10-16T03:43:15;13.70;99.90
14277;DHT22;7222;57.346;12.150;2022-10-16T03:45:43;13.70;99.90
14277;DHT22;7222;57.346;12.150;2022-10-16T03:48:10;13.80;99.90
14277;DHT22;7222;57.346;12.150;2022-10-16T03:50:37;13.80;99.90
14277;DHT22;7222;57.346;12.150;2022-10-16T03:53:04;13.70;99.90
14277;DHT22;7222;57.346;12.150;2022-10-16T03:55:32;13.70;99.90
14277;DHT22;7222;57.346;12.150;2022-10-16T03:57:59;13.70;99.90
14277;DHT22;7222;57.346;12.150;2022-10-16T04:00:27;13.70;99.90
14277;DHT22;7222;57.346;12.150;2022-10-16T04:02:54;13.60;99.90
14277;DHT22;7222;57.346;12.150;2022-10-16T04:05:21;13.60;99.90
14277;DHT22;7222;57.346;12.150;2022-10-16T04:07:48;13.60;99.90
14277;DHT22;7222;57.346;12.150;2022-10-16T04:10:15;13.60;99.90
14277;DHT22;7222;57.346;12.150;2022-10-16T04:12:43;13.50;99.90
14277;DHT22;7222;57.346;12.150;2022-10-16T04:15:11;13.50;99.90
14277;DHT22;7222;57.346;12.150;2022-10-16T04:17:38;13.60;99.90
14277;DHT22;7222;57.346;12.150;2022-10-16T04:20:05;13.60;99.90
14277;DHT22;7222;57.346;12.150;2022-10-16T04:22:33;13.60;99.90
14277;DHT22;7222;57.346;12.150;2022-10-16T04:25:00;13.60;99.90
14277;DHT22;7222;57.346;12.150;2022-10-16T04:27:27;13.70;99.90
14277;DHT22;7222;57.346;12.150;2022-10-16T04:29:55;13.70;99.90
14277;DHT22;7222;57.346;12.150;2022-10-16T04:32:22;13.70;99.90
14277;DHT22;7222;57.346;12.150;2022-10-16T04:34:49;13.70;99.90
14277;DHT22;7222;57.346;12.150;2022-10-16T04:37:16;13.70;99.90
14277;DHT22;7222;57.346;12.150;2022-10-16T04:39:43;13.70;99.90
14277;DHT22;7222;57.346;12.150;2022-10-16T04:42:11;13.70;99.90
14277;DHT22;7222;57.346;12.150;2022-10-16T04:44:38;13.70;99.90
14277;DHT22;7222;57.346;12.150;2022-10-16T04:47:06;13.60;99.90
14277;DHT22;7222;57.346;12.150;2022-10-16T04:49:33;13.60;99.90
14277;DHT22;7222;57.346;12.150;2022-10-16T04:52:00;13.70;99.90
14277;DHT22;7222;57.346;12.150;2022-10-16T04:54:27;13.70;99.90
14277;DHT22;7222;57.346;12.150;2022-10-16T04:56:54;13.60;99.90
14277;DHT22;7222;57.346;12.150;2022-10-16T04:59:22;13.70;99.90
14277;DHT22;7222;57.346;12.150;2022-10-16T05:01:49;13.70;99.90
14277;DHT22;7222;57.346;12.150;2022-10-16T05:04:18;13.70;99.90
14277;DHT22;7222;57.346;12.150;2022-10-16T05:06:45;13.80;99.90
14277;DHT22;7222;57.346;12.150;2022-10-16T05:09:14;13.80;99.90
14277;DHT22;7222;57.346;12.150;2022-10-16T05:11:41;13.80;99.90
14277;DHT22;7222;57.346;12.150;2022-10-16T05:14:11;13.90;99.90
14277;DHT22;7222;57.346;12.150;2022-10-16T05:16:38;13.90;99.90
14277;DHT22;7222;57.346;12.150;2022-10-16T05:19:05;13.90;99.90
14277;DHT22;7222;57.346;12.150;2022-10-16T05:21:33;14.00;99.90
14277;DHT22;7222;57.346;12.150;2022-10-16T05:24:00;14.00;99.90
14277;DHT22;7222;57.346;12.150;2022-10-16T05:26:27;14.10;99.90
14277;DHT22;7222;57.346;12.150;2022-10-16T05:28:54;14.10;99.90
14277;DHT22;7222;57.346;12.150;2022-10-16T05:31:21;14.00;99.90
14277;DHT22;7222;57.346;12.150;2022-10-16T05:33:48;14.00;99.90
14277;DHT22;7222;57.346;12.150;2022-10-16T05:36:15;14.00;99.90
14277;DHT22;7222;57.346;12.150;2022-10-16T05:38:45;13.90;99.90
14277;DHT22;7222;57.346;12.150;2022-10-16T05:41:12;13.90;99.90
14277;DHT22;7222;57.346;12.150;2022-10-16T05:43:39;13.90;99.90
14277;DHT22;7222;57.346;12.150;2022-10-16T05:46:06;13.90;99.90
14277;DHT22;7222;57.346;12.150;2022-10-16T05:48:33;14.00;99.90
14277;DHT22;7222;57.346;12.150;2022-10-16T05:51:01;14.00;99.90
14277;DHT22;7222;57.346;12.150;2022-10-16T05:53:30;14.00;99.90
14277;DHT22;7222;57.346;12.150;2022-10-16T05:55:59;14.00;99.90
14277;DHT22;7222;57.346;12.150;2022-10-16T05:58:29;14.00;99.90
14277;DHT22;7222;57.346;12.150;2022-10-16T06:00:57;14.00;99.90
14277;DHT22;7222;57.346;12.150;2022-10-16T06:03:25;14.10;99.90
14277;DHT22;7222;57.346;12.150;2022-10-16T06:05:52;14.10;99.90
14277;DHT22;7222;57.346;12.150;2022-10-16T06:08:21;14.00;99.90
14277;DHT22;7222;57.346;12.150;2022-10-16T06:10:48;14.00;99.90
14277;DHT22;7222;57.346;12.150;2022-10-16T06:13:17;14.00;99.90
14277;DHT22;7222;57.346;12.150;2022-10-16T06:15:44;14.00;99.90
14277;DHT22;7222;57.346;12.150;2022-10-16T06:18:12;13.90;99.90
14277;DHT22;7222;57.346;12.150;2022-10-16T06:20:38;13.90;99.90
14277;DHT22;7222;57.346;12.150;2022-10-16T06:23:05;13.80;99.90
14277;DHT22;7222;57.346;12.150;2022-10-16T06:25:32;13.80;99.90
14277;DHT22;7222;57.346;12.150;2022-10-16T06:27:59;13.70;99.90
14277;DHT22;7222;57.346;12.150;2022-10-16T06:30:28;13.70;99.90
14277;DHT22;7222;57.346;12.150;2022-10-16T06:32:55;13.60;99.90
14277;DHT22;7222;57.346;12.150;2022-10-16T06:35:22;13.60;99.90
14277;DHT22;7222;57.346;12.150;2022-10-16T06:37:49;13.60;99.90
14277;DHT22;7222;57.346;12.150;2022-10-16T06:40:16;13.50;99.90
14277;DHT22;7222;57.346;12.150;2022-10-16T06:42:43;13.50;99.90
14277;DHT22;7222;57.346;12.150;2022-10-16T06:45:10;13.50;99.90
14277;DHT22;7222;57.346;12.150;2022-10-16T06:47:39;13.60;99.90
14277;DHT22;7222;57.346;12.150;2022-10-16T06:50:07;13.60;99.90
14277;DHT22;7222;57.346;12.150;2022-10-16T06:52:34;13.70;99.90
14277;DHT22;7222;57.346;12.150;2022-10-16T06:55:01;13.70;99.90
14277;DHT22;7222;57.346;12.150;2022-10-16T06:57:29;13.70;99.90
14277;DHT22;7222;57.346;12.150;2022-10-16T06:59:56;13.70;99.90
14277;DHT22;7222;57.346;12.150;2022-10-16T07:02:23;13.80;99.90
14277;DHT22;7222;57.346;12.150;2022-10-16T07:04:52;13.80;99.90
14277;DHT22;7222;57.346;12.150;2022-10-16T07:07:19;13.90;99.90
14277;DHT22;7222;57.346;12.150;2022-10-16T07:09:46;13.90;99.90
14277;DHT22;7222;57.346;12.150;2022-10-16T07:12:13;13.90;99.90
14277;DHT22;7222;57.346;12.150;2022-10-16T07:14:40;14.00;99.90
14277;DHT22;7222;57.346;12.150;2022-10-16T07:17:07;14.00;99.90
14277;DHT22;7222;57.346;12.150;2022-10-16T07:19:34;14.00;99.90
14277;DHT22;7222;57.346;12.150;2022-10-16T07:22:03;14.00;99.90
14277;DHT22;7222;57.346;12.150;2022-10-16T07:24:30;14.00;99.90
14277;DHT22;7222;57.346;12.150;2022-10-16T07:26:57;14.00;99.90
14277;DHT22;7222;57.346;12.150;2022-10-16T07:29:24;13.90;99.90
14277;DHT22;7222;57.346;12.150;2022-10-16T07:31:51;13.90;99.90
14277;DHT22;7222;57.346;12.150;2022-10-16T07:34:19;13.90;99.90
14277;DHT22;7222;57.346;12.150;2022-10-16T07:36:48;13.90;99.90
14277;DHT22;7222;57.346;12.150;2022-10-16T07:39:17;13.90;99.90
14277;DHT22;7222;57.346;12.150;2022-10-16T07:41:44;13.80;99.90
14277;DHT22;7222;57.346;12.150;2022-10-16T07:44:11;13.80;99.90
14277;DHT22;7222;57.346;12.150;2022-10-16T07:46:38;13.80;99.90
14277;DHT22;7222;57.346;12.150;2022-10-16T07:49:05;13.80;99.90
14277;DHT22;7222;57.346;12.150;2022-10-16T07:51:32;13.80;99.90
14277;DHT22;7222;57.346;12.150;2022-10-16T07:53:59;13.80;99.90
14277;DHT22;7222;57.346;12.150;2022-10-16T07:56:30;13.90;99.90
14277;DHT22;7222;57.346;12.150;2022-10-16T07:58:57;13.90;99.90
14277;DHT22;7222;57.346;12.150;2022-10-16T08:01:24;14.00;99.90
14277;DHT22;7222;57.346;12.150;2022-10-16T08:03:51;14.00;99.90
14277;DHT22;7222;57.346;12.150;2022-10-16T08:06:20;14.10;99.90
14277;DHT22;7222;57.346;12.150;2022-10-16T08:08:47;14.00;99.90
14277;DHT22;7222;57.346;12.150;2022-10-16T08:11:14;14.00;99.90
14277;DHT22;7222;57.346;12.150;2022-10-16T08:13:43;14.00;99.90
14277;DHT22;7222;57.346;12.150;2022-10-16T08:16:10;14.10;99.90
14277;DHT22;7222;57.346;12.150;2022-10-16T08:18:39;14.10;99.90
14277;DHT22;7222;57.346;12.150;2022-10-16T08:21:08;14.00;99.90
14277;DHT22;7222;57.346;12.150;2022-10-16T08:23:38;13.90;99.90
14277;DHT22;7222;57.346;12.150;2022-10-16T08:26:07;13.90;99.90
14277;DHT22;7222;57.346;12.150;2022-10-16T08:28:35;13.80;99.90
14277;DHT22;7222;57.346;12.150;2022-10-16T08:31:12;13.90;99.90
14277;DHT22;7222;57.346;12.150;2022-10-16T08:33:41;13.90;99.90
14277;DHT22;7222;57.346;12.150;2022-10-16T08:36:10;13.90;99.90
14277;DHT22;7222;57.346;12.150;2022-10-16T08:38:37;13.90;99.90
14277;DHT22;7222;57.346;12.150;2022-10-16T08:41:29;13.90;99.90
14277;DHT22;7222;57.346;12.150;2022-10-16T08:47:02;14.00;99.90
14277;DHT22;7222;57.346;12.150;2022-10-16T08:49:32;14.00;99.90
14277;DHT22;7222;57.346;12.150;2022-10-16T08:51:59;14.00;99.90
14277;DHT22;7222;57.346;12.150;2022-10-16T08:54:29;14.00;99.90
14277;DHT22;7222;57.346;12.150;2022-10-16T08:57:07;14.00;99.90
14277;DHT22;7222;57.346;12.150;2022-10-16T08:59:35;14.00;99.90
14277;DHT22;7222;57.346;12.150;2022-10-16T09:02:19;14.00;99.90
14277;DHT22;7222;57.346;12.150;2022-10-16T09:07:43;14.00;99.90
14277;DHT22;7222;57.346;12.150;2022-10-16T09:10:25;14.00;99.90
14277;DHT22;7222;57.346;12.150;2022-10-16T09:12:56;14.00;99.90
14277;DHT22;7222;57.346;12.150;2022-10-16T09:15:32;14.00;99.90
14277;DHT22;7222;57.346;12.150;2022-10-16T09:18:06;14.00;99.90
14277;DHT22;7222;57.346;12.150;2022-10-16T09:20:42;14.00;99.90
14277;DHT22;7222;57.346;12.150;2022-10-16T09:23:16;14.00;99.90
14277;DHT22;7222;57.346;12.150;2022-10-16T09:25:47;14.10;99.90
14277;DHT22;7222;57.346;12.150;2022-10-16T09:28:15;14.10;99.90
14277;DHT22;7222;57.346;12.150;2022-10-16T09:30:42;14.10;99.90
14277;DHT22;7222;57.346;12.150;2022-10-16T09:33:12;14.10;99.90
14277;DHT22;7222;57.346;12.150;2022-10-16T09:35:41;14.10;99.90
14277;DHT22;7222;57.346;12.150;2022-10-16T09:38:09;14.10;99.90
14277;DHT22;7222;57.346;12.150;2022-10-16T09:40:47;14.10;99.90
14277;DHT22;7222;57.346;12.150;2022-10-16T09:43:20;14.10;99.90
14277;DHT22;7222;57.346;12.150;2022-10-16T09:45:56;14.10;99.90
14277;DHT22;7222;57.346;12.150;2022-10-16T09:48:26;14.10;99.90
14277;DHT22;7222;57.346;12.150;2022-10-16T09:50:58;14.10;99.90
14277;DHT22;7222;57.346;12.150;2022-10-16T09:53:37;14.20;99.90
14277;DHT22;7222;57.346;12.150;2022-10-16T09:56:05;14.30;99.90
14277;DHT22;7222;57.346;12.150;2022-10-16T09:58:33;14.40;99.90
14277;DHT22;7222;57.346;12.150;2022-10-16T10:01:00;14.40;99.90
14277;DHT22;7222;57.346;12.150;2022-10-16T10:03:35;14.40;99.90
14277;DHT22;7222;57.346;12.150;2022-10-16T10:06:15;14.40;99.90
14277;DHT22;7222;57.346;12.150;2022-10-16T10:08:56;14.60;99.90
14277;DHT22;7222;57.346;12.150;2022-10-16T10:11:43;14.50;99.90
14277;DHT22;7222;57.346;12.150;2022-10-16T10:14:19;14.40;99.90
14277;DHT22;7222;57.346;12.150;2022-10-16T10:16:47;14.30;99.90
14277;DHT22;7222;57.346;12.150;2022-10-16T10:19:17;14.20;99.90
14277;DHT22;7222;57.346;12.150;2022-10-16T10:21:44;14.10;99.90
14277;DHT22;7222;57.346;12.150;2022-10-16T10:24:13;14.10;99.90
14277;DHT22;7222;57.346;12.150;2022-10-16T10:26:48;14.00;99.90
14277;DHT22;7222;57.346;12.150;2022-10-16T10:29:31;14.00;99.90
14277;DHT22;7222;57.346;12.150;2022-10-16T10:32:08;14.10;99.90
14277;DHT22;7222;57.346;12.150;2022-10-16T10:34:50;14.00;99.90
14277;DHT22;7222;57.346;12.150;2022-10-16T10:37:38;14.00;99.90
14277;DHT22;7222;57.346;12.150;2022-10-16T10:40:15;14.00;99.90
14277;DHT22;7222;57.346;12.150;2022-10-16T10:42:47;14.00;99.90
14277;DHT22;7222;57.346;12.150;2022-10-16T10:45:24;13.90;99.90
14277;DHT22;7222;57.346;12.150;2022-10-16T10:48:17;13.90;99.90
14277;DHT22;7222;57.346;12.150;2022-10-16T10:50:51;14.00;99.90
14277;DHT22;7222;57.346;12.150;2022-10-16T10:53:28;13.90;99.90
14277;DHT22;7222;57.346;12.150;2022-10-16T10:56:12;13.90;99.90
14277;DHT22;7222;57.346;12.150;2022-10-16T10:59:02;13.90;99.90
14277;DHT22;7222;57.346;12.150;2022-10-16T11:01:40;13.90;99.90
14277;DHT22;7222;57.346;12.150;2022-10-16T11:04:30;13.90;99.90
14277;DHT22;7222;57.346;12.150;2022-10-16T11:07:04;13.90;99.90
14277;DHT22;7222;57.346;12.150;2022-10-16T11:09:36;13.90;99.90
14277;DHT22;7222;57.346;12.150;2022-10-16T11:12:07;13.90;99.90
14277;DHT22;7222;57.346;12.150;2022-10-16T11:14:40;13.60;99.90
14277;DHT22;7222;57.346;12.150;2022-10-16T11:17:12;13.50;99.90
14277;DHT22;7222;57.346;12.150;2022-10-16T11:19:44;13.50;99.90
14277;DHT22;7222;57.346;12.150;2022-10-16T11:22:17;13.50;99.90
14277;DHT22;7222;57.346;12.150;2022-10-16T11:24:50;13.50;99.90
14277;DHT22;7222;57.346;12.150;2022-10-16T11:27:22;13.70;99.90
14277;DHT22;7222;57.346;12.150;2022-10-16T11:29:55;13.90;99.90
14277;DHT22;7222;57.346;12.150;2022-10-16T11:32:28;14.10;99.90
14277;DHT22;7222;57.346;12.150;2022-10-16T11:35:05;14.00;99.90
14277;DHT22;7222;57.346;12.150;2022-10-16T11:37:42;13.80;99.90
14277;DHT22;7222;57.346;12.150;2022-10-16T11:40:20;13.60;99.90
14277;DHT22;7222;57.346;12.150;2022-10-16T11:42:51;13.50;99.90
14277;DHT22;7222;57.346;12.150;2022-10-16T11:45:28;13.70;99.90
14277;DHT22;7222;57.346;12.150;2022-10-16T11:48:02;13.80;99.90
14277;DHT22;7222;57.346;12.150;2022-10-16T11:50:36;13.80;99.90
14277;DHT22;7222;57.346;12.150;2022-10-16T11:53:16;13.70;99.90
14277;DHT22;7222;57.346;12.150;2022-10-16T11:55:45;13.80;99.90
14277;DHT22;7222;57.346;12.150;2022-10-16T11:58:20;13.80;99.90
14277;DHT22;7222;57.346;12.150;2022-10-16T12:00:55;13.70;99.90
14277;DHT22;7222;57.346;12.150;2022-10-16T12:03:28;13.70;99.90
14277;DHT22;7222;57.346;12.150;2022-10-16T12:06:10;13.70;99.90
14277;DHT22;7222;57.346;12.150;2022-10-16T12:08:43;13.70;99.90
14277;DHT22;7222;57.346;12.150;2022-10-16T12:11:31;13.70;99.90
14277;DHT22;7222;57.346;12.150;2022-10-16T12:14:20;13.80;99.90
14277;DHT22;7222;57.346;12.150;2022-10-16T12:16:55;13.70;99.90
14277;DHT22;7222;57.346;12.150;2022-10-16T12:19:23;13.70;99.90
14277;DHT22;7222;57.346;12.150;2022-10-16T12:21:52;13.70;99.90
14277;DHT22;7222;57.346;12.150;2022-10-16T12:24:31;13.70;99.90
14277;DHT22;7222;57.346;12.150;2022-10-16T12:26:58;13.70;99.90
14277;DHT22;7222;57.346;12.150;2022-10-16T12:29:32;13.20;99.90
14277;DHT22;7222;57.346;12.150;2022-10-16T12:32:00;12.70;99.90
14277;DHT22;7222;57.346;12.150;2022-10-16T12:34:29;12.30;99.90
14277;DHT22;7222;57.346;12.150;2022-10-16T12:37:13;12.30;99.90
14277;DHT22;7222;57.346;12.150;2022-10-16T12:39:42;12.10;99.90
14277;DHT22;7222;57.346;12.150;2022-10-16T12:42:30;12.30;99.90
14277;DHT22;7222;57.346;12.150;2022-10-16T12:44:59;12.20;99.90
14277;DHT22;7222;57.346;12.150;2022-10-16T12:47:37;12.50;99.90
14277;DHT22;7222;57.346;12.150;2022-10-16T12:50:23;12.50;99.90
14277;DHT22;7222;57.346;12.150;2022-10-16T12:52:50;13.10;99.90
14277;DHT22;7222;57.346;12.150;2022-10-16T12:55:21;13.40;99.90
14277;DHT22;7222;57.346;12.150;2022-10-16T13:00:53;14.10;99.90
14277;DHT22;7222;57.346;12.150;2022-10-16T13:03:43;14.20;99.90
14277;DHT22;7222;57.346;12.150;2022-10-16T13:06:24;14.30;99.90
14277;DHT22;7222;57.346;12.150;2022-10-16T13:12:07;14.10;99.90
14277;DHT22;7222;57.346;12.150;2022-10-16T13:15:03;14.30;99.90
14277;DHT22;7222;57.346;12.150;2022-10-16T13:17:40;14.50;99.90
14277;DHT22;7222;57.346;12.150;2022-10-16T13:20:16;14.80;99.90
14277;DHT22;7222;57.346;12.150;2022-10-16T13:22:53;16.10;99.90
14277;DHT22;7222;57.346;12.150;2022-10-16T13:25:28;16.90;99.90
14277;DHT22;7222;57.346;12.150;2022-10-16T13:28:00;17.30;99.90
14277;DHT22;7222;57.346;12.150;2022-10-16T13:30:29;17.40;99.90
14277;DHT22;7222;57.346;12.150;2022-10-16T13:33:00;17.20;99.90
14277;DHT22;7222;57.346;12.150;2022-10-16T13:35:30;16.60;99.90
14277;DHT22;7222;57.346;12.150;2022-10-16T13:38:06;16.00;99.90
14277;DHT22;7222;57.346;12.150;2022-10-16T13:40:48;15.00;99.90
14277;DHT22;7222;57.346;12.150;2022-10-16T13:43:18;15.00;99.90
14277;DHT22;7222;57.346;12.150;2022-10-16T13:45:58;14.60;99.90
14277;DHT22;7222;57.346;12.150;2022-10-16T13:48:25;14.40;99.90
14277;DHT22;7222;57.346;12.150;2022-10-16T13:51:03;14.70;99.90
14277;DHT22;7222;57.346;12.150;2022-10-16T13:53:32;14.70;99.90
14277;DHT22;7222;57.346;12.150;2022-10-16T13:55:59;14.60;99.90
14277;DHT22;7222;57.346;12.150;2022-10-16T13:58:28;14.90;99.90
14277;DHT22;7222;57.346;12.150;2022-10-16T14:00:57;14.70;99.90
14277;DHT22;7222;57.346;12.150;2022-10-16T14:03:26;14.70;99.90
14277;DHT22;7222;57.346;12.150;2022-10-16T14:05:55;14.80;99.90
14277;DHT22;7222;57.346;12.150;2022-10-16T14:08:25;15.20;99.90
14277;DHT22;7222;57.346;12.150;2022-10-16T14:10:54;15.20;99.90
14277;DHT22;7222;57.346;12.150;2022-10-16T14:13:36;14.70;99.90
14277;DHT22;7222;57.346;12.150;2022-10-16T14:16:07;14.40;99.90
14277;DHT22;7222;57.346;12.150;2022-10-16T14:18:37;14.40;99.90
14277;DHT22;7222;57.346;12.150;2022-10-16T14:21:07;14.40;99.90
14277;DHT22;7222;57.346;12.150;2022-10-16T14:23:39;14.60;99.90
14277;DHT22;7222;57.346;12.150;2022-10-16T14:26:15;14.60;99.90
14277;DHT22;7222;57.346;12.150;2022-10-16T14:28:45;14.40;99.90
14277;DHT22;7222;57.346;12.150;2022-10-16T14:31:27;14.20;99.90
14277;DHT22;7222;57.346;12.150;2022-10-16T14:33:55;14.30;99.90
14277;DHT22;7222;57.346;12.150;2022-10-16T14:36:22;14.30;99.90
14277;DHT22;7222;57.346;12.150;2022-10-16T14:39:00;14.40;99.90
14277;DHT22;7222;57.346;12.150;2022-10-16T14:41:29;14.50;99.90
14277;DHT22;7222;57.346;12.150;2022-10-16T14:44:01;14.80;99.90
14277;DHT22;7222;57.346;12.150;2022-10-16T14:46:33;14.60;99.90
14277;DHT22;7222;57.346;12.150;2022-10-16T14:49:04;14.40;99.90
14277;DHT22;7222;57.346;12.150;2022-10-16T14:51:41;14.20;99.90
14277;DHT22;7222;57.346;12.150;2022-10-16T14:54:11;14.10;99.90
14277;DHT22;7222;57.346;12.150;2022-10-16T14:56:46;14.10;99.90
14277;DHT22;7222;57.346;12.150;2022-10-16T14:59:18;14.10;99.90
14277;DHT22;7222;57.346;12.150;2022-10-16T15:01:46;14.00;99.90
14277;DHT22;7222;57.346;12.150;2022-10-16T15:04:13;13.90;99.90
14277;DHT22;7222;57.346;12.150;2022-10-16T15:06:41;13.80;99.90
14277;DHT22;7222;57.346;12.150;2022-10-16T15:09:08;13.80;99.90
14277;DHT22;7222;57.346;12.150;2022-10-16T15:11:35;13.90;99.90
14277;DHT22;7222;57.346;12.150;2022-10-16T15:14:03;13.80;99.90
14277;DHT22;7222;57.346;12.150;2022-10-16T15:16:32;13.80;99.90
14277;DHT22;7222;57.346;12.150;2022-10-16T15:18:59;13.70;99.90
14277;DHT22;7222;57.346;12.150;2022-10-16T15:21:28;13.70;99.90
14277;DHT22;7222;57.346;12.150;2022-10-16T15:23:56;13.70;99.90
14277;DHT22;7222;57.346;12.150;2022-10-16T15:26:24;13.60;99.90
14277;DHT22;7222;57.346;12.150;2022-10-16T15:28:51;13.60;99.90
14277;DHT22;7222;57.346;12.150;2022-10-16T15:31:18;13.60;99.90
14277;DHT22;7222;57.346;12.150;2022-10-16T15:33:49;13.50;99.90
14277;DHT22;7222;57.346;12.150;2022-10-16T15:36:25;13.50;99.90
14277;DHT22;7222;57.346;12.150;2022-10-16T15:38:52;13.50;99.90
14277;DHT22;7222;57.346;12.150;2022-10-16T15:41:19;13.40;99.90
14277;DHT22;7222;57.346;12.150;2022-10-16T15:43:48;13.40;99.90
14277;DHT22;7222;57.346;12.150;2022-10-16T15:46:18;13.40;99.90
14277;DHT22;7222;57.346;12.150;2022-10-16T15:48:48;13.30;99.90
14277;DHT22;7222;57.346;12.150;2022-10-16T15:51:16;13.30;99.90
14277;DHT22;7222;57.346;12.150;2022-10-16T15:53:43;13.20;99.90
14277;DHT22;7222;57.346;12.150;2022-10-16T15:56:12;13.30;99.90
14277;DHT22;7222;57.346;12.150;2022-10-16T15:58:40;13.30;99.90
14277;DHT22;7222;57.346;12.150;2022-10-16T16:01:07;13.30;99.90
14277;DHT22;7222;57.346;12.150;2022-10-16T16:03:36;13.30;99.90